createdAt,value
2018-05-26T00:00:28.445Z,9.17
2018-05-26T00:02:55.989Z,8.80
2018-05-26T00:05:23.717Z,8.20
2018-05-26T00:07:51.382Z,6.37
2018-05-26T00:10:18.902Z,7.60
2018-05-26T00:12:46.449Z,10.07
2018-05-26T00:15:13.996Z,9.63
2018-05-26T00:17:41.623Z,9.60
2018-05-26T00:20:09.160Z,9.53
2018-05-26T00:22:36.677Z,9.23
2018-05-26T00:25:04.301Z,7.87
2018-05-26T00:27:31.961Z,8.53
2018-05-26T00:29:59.489Z,5.90
2018-05-26T00:32:27.023Z,8.57
2018-05-26T00:34:54.576Z,7.90
2018-05-26T00:37:22.144Z,9.43
2018-05-26T00:39:49.691Z,7.93
2018-05-26T00:42:17.320Z,10.77
2018-05-26T00:44:44.854Z,14.07
2018-05-26T00:47:12.439Z,11.30
2018-05-26T00:49:39.971Z,9.07
2018-05-26T00:52:07.502Z,7.50
2018-05-26T00:54:35.056Z,12.70
2018-05-26T00:57:03.176Z,14.00
2018-05-26T00:59:30.705Z,9.83
2018-05-26T01:01:58.257Z,8.60
2018-05-26T01:04:25.811Z,8.80
2018-05-26T01:06:53.435Z,7.70
2018-05-26T01:09:20.968Z,9.40
2018-05-26T01:11:48.554Z,8.20
2018-05-26T01:14:16.084Z,7.70
2018-05-26T01:16:43.680Z,6.50
2018-05-26T01:19:11.340Z,7.20
2018-05-26T01:21:39.013Z,7.47
2018-05-26T01:24:06.558Z,6.53
2018-05-26T01:26:34.092Z,9.17
2018-05-26T01:29:01.691Z,11.83
2018-05-26T01:31:29.342Z,8.97
2018-05-26T01:33:56.899Z,8.70
2018-05-26T01:36:24.427Z,8.60
2018-05-26T01:38:51.958Z,8.87
2018-05-26T01:41:20.429Z,7.83
2018-05-26T01:43:48.060Z,11.43
2018-05-26T01:46:15.725Z,11.70
2018-05-26T01:48:43.268Z,7.80
2018-05-26T01:51:10.844Z,6.93
2018-05-26T01:53:38.377Z,8.67
2018-05-26T01:56:05.909Z,6.60
2018-05-26T01:58:33.523Z,11.07
2018-05-26T02:01:01.053Z,7.10
2018-05-26T02:03:28.592Z,9.23
2018-05-26T02:05:56.201Z,7.53
2018-05-26T02:08:23.729Z,5.63
2018-05-26T02:10:51.423Z,7.83
2018-05-26T02:13:18.996Z,8.37
2018-05-26T02:15:46.534Z,13.87
2018-05-26T02:18:14.056Z,7.30
2018-05-26T02:20:42.503Z,11.03
2018-05-26T02:23:10.148Z,7.47
2018-05-26T02:25:37.683Z,6.50
2018-05-26T02:28:05.271Z,7.60
2018-05-26T02:30:32.842Z,9.50
2018-05-26T02:33:00.410Z,11.50
2018-05-26T02:35:27.964Z,9.40
2018-05-26T02:37:56.106Z,7.67
2018-05-26T02:40:23.687Z,7.60
2018-05-26T02:42:51.343Z,8.40
2018-05-26T02:45:18.870Z,7.70
2018-05-26T02:47:46.462Z,8.70
2018-05-26T02:50:14.128Z,8.53
2018-05-26T02:52:41.688Z,6.60
2018-05-26T02:55:09.247Z,7.53
2018-05-26T02:57:36.805Z,7.77
2018-05-26T03:00:04.371Z,8.17
2018-05-26T03:02:31.895Z,9.00
2018-05-26T03:05:04.988Z,15.17
2018-05-26T03:07:38.202Z,6.30
2018-05-26T03:10:11.324Z,8.20
2018-05-26T03:12:44.473Z,7.83
2018-05-26T03:15:11.503Z,9.13
2018-05-26T03:17:44.659Z,8.37
2018-05-26T03:20:12.394Z,7.57
2018-05-26T03:22:39.950Z,6.60
2018-05-26T03:25:07.537Z,7.97
2018-05-26T03:27:35.176Z,7.10
2018-05-26T03:30:02.732Z,6.50
2018-05-26T03:32:30.396Z,7.63
2018-05-26T03:34:58.052Z,6.80
2018-05-26T03:37:25.588Z,7.63
2018-05-26T03:39:53.183Z,7.00
2018-05-26T03:42:20.704Z,9.80
2018-05-26T03:44:48.225Z,5.97
2018-05-26T03:47:15.859Z,9.00
2018-05-26T03:49:43.403Z,7.50
2018-05-26T03:52:10.976Z,7.87
2018-05-26T03:54:50.316Z,7.57
2018-05-26T03:57:29.751Z,5.80
2018-05-26T04:00:18.130Z,8.50
2018-05-26T04:02:45.761Z,5.97
2018-05-26T04:05:14.085Z,7.03
2018-05-26T04:07:41.620Z,10.03
2018-05-26T04:10:09.140Z,9.17
2018-05-26T04:12:36.654Z,5.80
2018-05-26T04:15:04.209Z,6.67
2018-05-26T04:17:31.742Z,7.23
2018-05-26T04:19:59.261Z,8.47
2018-05-26T04:22:26.783Z,7.47
2018-05-26T04:24:54.308Z,5.60
2018-05-26T04:27:21.842Z,8.40
2018-05-26T04:29:49.355Z,7.10
2018-05-26T04:32:16.991Z,5.60
2018-05-26T04:34:44.523Z,6.77
2018-05-26T04:37:12.114Z,5.97
2018-05-26T04:39:39.636Z,11.70
2018-05-26T04:42:07.165Z,10.80
2018-05-26T04:44:34.724Z,11.00
2018-05-26T04:47:02.354Z,7.33
2018-05-26T04:49:29.880Z,11.77
2018-05-26T04:51:57.401Z,7.30
2018-05-26T04:54:24.950Z,7.57
2018-05-26T04:56:52.477Z,8.37
2018-05-26T04:59:20.000Z,6.20
2018-05-26T05:01:47.553Z,7.63
2018-05-26T05:04:15.106Z,7.27
2018-05-26T05:06:42.666Z,7.50
2018-05-26T05:09:10.189Z,8.67
2018-05-26T05:11:37.716Z,10.03
2018-05-26T05:14:05.246Z,7.07
2018-05-26T05:16:32.846Z,6.23
2018-05-26T05:19:00.383Z,7.17
2018-05-26T05:21:27.924Z,7.27
2018-05-26T05:23:55.551Z,8.30
2018-05-26T05:26:23.080Z,7.23
2018-05-26T05:28:50.620Z,8.73
2018-05-26T05:31:18.158Z,6.37
2018-05-26T05:33:45.692Z,6.53
2018-05-26T05:36:13.216Z,6.73
2018-05-26T05:38:40.739Z,6.23
2018-05-26T05:41:08.379Z,9.93
2018-05-26T05:43:35.927Z,7.63
2018-05-26T05:46:03.488Z,5.53
2018-05-26T05:48:31.049Z,8.07
2018-05-26T05:50:58.572Z,6.73
2018-05-26T05:53:26.099Z,5.93
2018-05-26T05:55:53.663Z,8.93
2018-05-26T05:58:21.204Z,8.43
2018-05-26T06:00:48.730Z,6.67
2018-05-26T06:03:16.268Z,8.73
2018-05-26T06:05:43.868Z,5.67
2018-05-26T06:08:11.402Z,8.70
2018-05-26T06:10:38.948Z,5.60
2018-05-26T06:13:06.619Z,6.47
2018-05-26T06:15:34.151Z,14.27
2018-05-26T06:18:01.740Z,7.87
2018-05-26T06:20:29.271Z,5.63
2018-05-26T06:22:56.826Z,9.20
2018-05-26T06:25:24.348Z,5.67
2018-05-26T06:27:51.911Z,5.80
2018-05-26T06:30:19.480Z,8.57
2018-05-26T06:32:47.007Z,7.60
2018-05-26T06:35:14.525Z,5.57
2018-05-26T06:37:42.101Z,4.93
2018-05-26T06:40:09.637Z,7.73
2018-05-26T06:42:37.167Z,4.67
2018-05-26T06:45:04.689Z,5.80
2018-05-26T06:47:32.215Z,7.07
2018-05-26T06:49:59.741Z,4.40
2018-05-26T06:52:27.272Z,5.67
2018-05-26T06:54:54.800Z,8.30
2018-05-26T06:57:22.317Z,6.47
2018-05-26T06:59:49.841Z,6.10
2018-05-26T07:02:17.390Z,4.50
2018-05-26T07:04:44.920Z,5.97
2018-05-26T07:07:12.453Z,7.15
2018-05-26T07:09:39.982Z,4.55
2018-05-26T07:12:07.541Z,8.90
2018-05-26T07:14:35.062Z,4.55
2018-05-26T07:17:02.711Z,5.22
2018-05-26T07:19:30.333Z,3.53
2018-05-26T07:21:57.856Z,4.43
2018-05-26T07:24:25.375Z,4.53
2018-05-26T07:26:52.887Z,4.22
2018-05-26T07:29:20.488Z,8.90
2018-05-26T07:31:48.011Z,4.68
2018-05-26T07:34:15.547Z,9.93
2018-05-26T07:36:43.071Z,5.30
2018-05-26T07:39:10.631Z,4.50
2018-05-26T07:41:38.166Z,4.10
2018-05-26T07:44:05.757Z,4.10
2018-05-26T07:46:33.520Z,2.83
2018-05-26T07:49:01.078Z,2.75
2018-05-26T07:51:28.666Z,3.87
2018-05-26T07:53:56.265Z,3.53
2018-05-26T07:56:23.847Z,5.25
2018-05-26T07:58:51.378Z,4.22
2018-05-26T08:01:18.907Z,10.80
2018-05-26T08:03:46.537Z,5.62
2018-05-26T08:06:14.065Z,3.50
2018-05-26T08:08:41.592Z,2.42
2018-05-26T08:11:09.115Z,3.03
2018-05-26T08:13:37.497Z,2.20
2018-05-26T08:16:05.107Z,7.03
2018-05-26T08:18:32.703Z,3.35
2018-05-26T08:21:00.244Z,3.87
2018-05-26T08:23:27.776Z,6.57
2018-05-26T08:25:55.322Z,2.47
2018-05-26T08:28:22.854Z,2.58
2018-05-26T08:30:50.380Z,2.53
2018-05-26T08:33:17.960Z,3.78
2018-05-26T08:35:45.505Z,3.85
2018-05-26T08:38:13.049Z,2.95
2018-05-26T08:40:40.691Z,2.60
2018-05-26T08:43:08.257Z,3.72
2018-05-26T08:45:35.874Z,2.55
2018-05-26T08:48:03.384Z,4.47
2018-05-26T08:50:31.000Z,4.62
2018-05-26T08:52:58.545Z,2.78
2018-05-26T08:55:26.081Z,4.78
2018-05-26T08:57:53.648Z,4.05
2018-05-26T09:00:21.171Z,3.33
2018-05-26T09:02:48.798Z,4.90
2018-05-26T09:05:16.340Z,3.85
2018-05-26T09:07:43.857Z,3.72
2018-05-26T09:10:11.478Z,2.53
2018-05-26T09:12:39.005Z,2.28
2018-05-26T09:15:06.614Z,2.42
2018-05-26T09:17:34.261Z,2.50
2018-05-26T09:20:01.804Z,2.58
2018-05-26T09:22:29.373Z,2.33
2018-05-26T09:24:56.912Z,2.53
2018-05-26T09:27:24.501Z,4.05
2018-05-26T09:29:52.037Z,3.53
2018-05-26T09:32:19.572Z,2.85
2018-05-26T09:34:47.145Z,3.25
2018-05-26T09:37:14.678Z,4.28
2018-05-26T09:39:42.218Z,3.10
2018-05-26T09:42:10.376Z,3.58
2018-05-26T09:44:37.939Z,2.40
2018-05-26T09:47:05.462Z,3.72
2018-05-26T09:49:32.988Z,2.12
2018-05-26T09:52:00.551Z,3.25
2018-05-26T09:54:28.172Z,2.95
2018-05-26T09:56:55.765Z,5.18
2018-05-26T09:59:23.292Z,3.60
2018-05-26T10:01:50.828Z,3.37
2018-05-26T10:04:18.640Z,2.28
2018-05-26T10:06:46.215Z,2.45
2018-05-26T10:09:13.907Z,1.98
2018-05-26T10:11:41.436Z,2.90
2018-05-26T10:14:08.956Z,2.10
2018-05-26T10:16:36.521Z,2.65
2018-05-26T10:19:04.048Z,2.92
2018-05-26T10:21:31.645Z,2.65
2018-05-26T10:23:59.179Z,3.37
2018-05-26T10:26:26.709Z,2.67
2018-05-26T10:28:54.284Z,4.93
2018-05-26T10:31:21.844Z,5.75
2018-05-26T10:33:49.372Z,3.58
2018-05-26T10:36:16.900Z,3.53
2018-05-26T10:38:44.420Z,3.50
2018-05-26T10:41:11.954Z,4.32
2018-05-26T10:43:39.590Z,4.47
2018-05-26T10:46:18.913Z,3.80
2018-05-26T10:48:46.457Z,3.35
2018-05-26T10:51:13.997Z,6.68
2018-05-26T10:53:41.597Z,5.82
2018-05-26T10:56:09.151Z,3.15
2018-05-26T10:58:36.679Z,9.85
2018-05-26T11:01:04.206Z,4.22
2018-05-26T11:03:31.768Z,4.93
2018-05-26T11:05:59.328Z,4.93
2018-05-26T11:08:26.967Z,3.50
2018-05-26T11:10:54.492Z,5.60
2018-05-26T11:13:22.190Z,4.73
2018-05-26T11:15:49.909Z,5.47
2018-05-26T11:18:17.428Z,6.27
2018-05-26T11:20:45.060Z,3.87
2018-05-26T11:23:12.620Z,3.40
2018-05-26T11:25:40.197Z,3.90
2018-05-26T11:28:07.738Z,5.20
2018-05-26T11:30:35.329Z,4.00
2018-05-26T11:33:02.830Z,6.63
2018-05-26T11:35:30.376Z,7.77
2018-05-26T11:37:57.947Z,5.20
2018-05-26T11:40:25.539Z,3.43
2018-05-26T11:42:53.122Z,4.73
2018-05-26T11:45:20.657Z,5.97
2018-05-26T11:47:48.184Z,3.80
2018-05-26T11:50:15.784Z,3.87
2018-05-26T11:52:43.348Z,4.20
2018-05-26T11:55:10.892Z,5.77
2018-05-26T11:57:38.421Z,4.53
2018-05-26T12:00:06.021Z,3.93
2018-05-26T12:02:33.576Z,4.83
2018-05-26T12:05:01.151Z,8.07
2018-05-26T12:07:28.802Z,3.30
2018-05-26T12:09:56.361Z,4.77
2018-05-26T12:12:23.884Z,3.73
2018-05-26T12:14:51.407Z,6.80
2018-05-26T12:17:19.035Z,5.47
2018-05-26T12:19:46.599Z,4.53
2018-05-26T12:22:14.124Z,4.10
2018-05-26T12:24:41.653Z,6.77
2018-05-26T12:27:09.194Z,4.67
2018-05-26T12:29:36.726Z,4.30
2018-05-26T12:32:04.248Z,4.30
2018-05-26T12:34:31.856Z,4.30
2018-05-26T12:36:59.624Z,6.67
2018-05-26T12:39:27.192Z,5.30
2018-05-26T12:41:54.712Z,4.57
2018-05-26T12:44:22.237Z,3.90
2018-05-26T12:46:49.870Z,6.83
2018-05-26T12:49:17.420Z,7.43
2018-05-26T12:51:44.951Z,5.50
2018-05-26T12:54:12.746Z,4.80
2018-05-26T12:56:40.478Z,4.50
2018-05-26T12:59:08.071Z,6.10
2018-05-26T13:01:35.607Z,8.20
2018-05-26T13:04:03.190Z,4.97
2018-05-26T13:06:30.723Z,4.33
2018-05-26T13:08:58.316Z,4.87
2018-05-26T13:11:25.865Z,4.20
2018-05-26T13:13:53.412Z,3.47
2018-05-26T13:16:21.000Z,4.07
2018-05-26T13:18:48.549Z,4.53
2018-05-26T13:21:16.111Z,4.13
2018-05-26T13:23:43.694Z,6.23
2018-05-26T13:26:11.225Z,5.30
2018-05-26T13:28:38.765Z,3.20
2018-05-26T13:31:06.350Z,4.47
2018-05-26T13:33:33.877Z,4.20
2018-05-26T13:36:01.403Z,3.40
2018-05-26T13:38:28.957Z,10.53
2018-05-26T13:40:56.487Z,4.60
2018-05-26T13:43:24.048Z,4.80
2018-05-26T13:45:51.611Z,4.80
2018-05-26T13:48:19.175Z,4.77
2018-05-26T13:50:46.786Z,6.57
2018-05-26T13:53:14.316Z,7.47
2018-05-26T13:55:41.905Z,4.13
2018-05-26T13:58:09.409Z,3.37
2018-05-26T14:00:36.952Z,3.47
2018-05-26T14:03:04.548Z,4.17
2018-05-26T14:05:33.919Z,9.63
2018-05-26T14:08:01.476Z,6.07
2018-05-26T14:10:29.020Z,7.07
2018-05-26T14:12:56.555Z,5.77
2018-05-26T14:15:24.139Z,6.03
2018-05-26T14:17:51.680Z,4.97
2018-05-26T14:20:19.313Z,13.30
2018-05-26T14:22:46.850Z,5.40
2018-05-26T14:25:14.380Z,4.90
2018-05-26T14:27:41.908Z,7.00
2018-05-26T14:30:09.545Z,9.90
2018-05-26T14:32:37.196Z,4.77
2018-05-26T14:35:04.719Z,8.00
2018-05-26T14:37:32.366Z,8.40
2018-05-26T14:39:59.949Z,6.27
2018-05-26T14:42:27.508Z,7.93
2018-05-26T14:44:55.094Z,5.23
2018-05-26T14:47:22.628Z,7.57
2018-05-26T14:49:50.454Z,6.40
2018-05-26T14:52:17.984Z,5.77
2018-05-26T14:54:45.553Z,5.30
2018-05-26T14:57:13.084Z,4.70
2018-05-26T14:59:41.323Z,8.13
2018-05-26T15:02:08.866Z,7.40
2018-05-26T15:04:36.394Z,7.33
2018-05-26T15:07:03.924Z,7.03
2018-05-26T15:09:31.462Z,5.70
2018-05-26T15:11:59.075Z,3.80
2018-05-26T15:14:26.620Z,9.00
2018-05-26T15:16:54.163Z,6.00
2018-05-26T15:19:21.731Z,6.70
2018-05-26T15:21:49.362Z,5.97
2018-05-26T15:24:16.993Z,7.70
2018-05-26T15:26:44.634Z,4.27
2018-05-26T15:29:12.199Z,5.80
2018-05-26T15:31:39.744Z,4.53
2018-05-26T15:34:07.345Z,4.07
2018-05-26T15:36:34.985Z,6.60
2018-05-26T15:39:02.662Z,5.80
2018-05-26T15:41:30.211Z,3.63
2018-05-26T15:43:57.770Z,5.80
2018-05-26T15:46:25.318Z,4.27
2018-05-26T15:48:52.850Z,6.83
2018-05-26T15:51:20.418Z,7.17
2018-05-26T15:53:47.943Z,5.80
2018-05-26T15:56:15.479Z,4.37
2018-05-26T15:58:43.005Z,7.17
2018-05-26T16:01:10.537Z,4.77
2018-05-26T16:03:38.066Z,5.50
2018-05-26T16:06:05.704Z,4.30
2018-05-26T16:08:33.232Z,4.73
2018-05-26T16:11:00.782Z,5.77
2018-05-26T16:13:28.310Z,5.57
2018-05-26T16:15:55.838Z,3.93
2018-05-26T16:18:23.940Z,3.63
2018-05-26T16:20:51.573Z,7.27
2018-05-26T16:23:19.119Z,5.57
2018-05-26T16:25:46.696Z,9.27
2018-05-26T16:28:14.372Z,7.87
2018-05-26T16:30:42.022Z,5.10
2018-05-26T16:33:09.599Z,5.77
2018-05-26T16:35:37.125Z,3.43
2018-05-26T16:38:04.666Z,8.43
2018-05-26T16:40:32.260Z,6.77
2018-05-26T16:42:59.825Z,5.03
2018-05-26T16:45:27.377Z,4.43
2018-05-26T16:47:54.905Z,5.27
2018-05-26T16:50:22.504Z,5.50
2018-05-26T16:52:50.032Z,6.60
2018-05-26T16:55:17.546Z,3.90
2018-05-26T16:57:45.072Z,4.67
2018-05-26T17:00:12.637Z,4.00
2018-05-26T17:02:40.196Z,3.50
2018-05-26T17:05:07.724Z,5.07
2018-05-26T17:07:35.252Z,6.27
2018-05-26T17:10:02.775Z,5.53
2018-05-26T17:12:30.423Z,6.40
2018-05-26T17:14:58.023Z,4.30
2018-05-26T17:17:25.561Z,6.27
2018-05-26T17:19:53.085Z,7.97
2018-05-26T17:22:20.633Z,4.47
2018-05-26T17:24:48.232Z,4.53
2018-05-26T17:27:15.817Z,4.17
2018-05-26T17:29:43.359Z,6.10
2018-05-26T17:32:10.917Z,3.43
2018-05-26T17:34:38.447Z,4.23
2018-05-26T17:37:05.976Z,5.00
2018-05-26T17:39:33.535Z,4.13
2018-05-26T17:42:01.159Z,11.53
2018-05-26T17:44:28.681Z,8.00
2018-05-26T17:46:56.217Z,4.60
2018-05-26T17:49:23.836Z,6.50
2018-05-26T17:51:51.404Z,7.43
2018-05-26T17:54:19.061Z,5.57
2018-05-26T17:56:46.611Z,5.90
2018-05-26T17:59:14.308Z,3.67
2018-05-26T18:01:41.948Z,3.53
2018-05-26T18:04:09.488Z,4.37
2018-05-26T18:06:37.025Z,9.70
2018-05-26T18:09:05.267Z,6.83
2018-05-26T18:11:32.909Z,4.90
2018-05-26T18:14:00.462Z,3.60
2018-05-26T18:16:27.989Z,4.03
2018-05-26T18:18:55.507Z,3.33
2018-05-26T18:21:23.037Z,6.50
2018-05-26T18:23:50.568Z,4.53
2018-05-26T18:26:18.264Z,5.47
2018-05-26T18:28:45.872Z,9.03
2018-05-26T18:31:13.459Z,5.70
2018-05-26T18:33:41.009Z,4.73
2018-05-26T18:36:08.532Z,7.63
2018-05-26T18:38:36.067Z,4.57
2018-05-26T18:41:03.672Z,5.20
2018-05-26T18:43:31.243Z,6.37
2018-05-26T18:45:58.828Z,4.15
2018-05-26T18:48:26.389Z,5.43
2018-05-26T18:50:54.129Z,6.10
2018-05-26T18:53:21.671Z,3.83
2018-05-26T18:55:49.282Z,5.97
2018-05-26T18:58:16.827Z,6.13
2018-05-26T19:00:44.420Z,5.80
2018-05-26T19:03:12.592Z,4.70
2018-05-26T19:05:40.248Z,4.57
2018-05-26T19:08:07.907Z,4.40
2018-05-26T19:10:36.607Z,4.63
2018-05-26T19:13:04.257Z,4.13
2018-05-26T19:15:31.794Z,5.17
2018-05-26T19:18:00.095Z,5.50
2018-05-26T19:20:27.664Z,5.13
2018-05-26T19:22:55.220Z,3.90
2018-05-26T19:25:22.863Z,4.30
2018-05-26T19:27:50.513Z,4.90
2018-05-26T19:30:18.056Z,4.77
2018-05-26T19:32:45.609Z,5.77
2018-05-26T19:35:13.221Z,4.60
2018-05-26T19:37:40.783Z,13.00
2018-05-26T19:40:08.351Z,7.83
2018-05-26T19:42:35.923Z,7.70
2018-05-26T19:45:03.504Z,6.50
2018-05-26T19:47:31.064Z,8.47
2018-05-26T19:49:58.794Z,10.93
2018-05-26T19:52:26.353Z,7.80
2018-05-26T19:54:53.890Z,6.83
2018-05-26T19:57:21.434Z,8.10
2018-05-26T19:59:48.995Z,7.13
2018-05-26T20:02:16.517Z,6.53
2018-05-26T20:04:44.079Z,7.03
2018-05-26T20:07:11.716Z,9.27
2018-05-26T20:09:39.364Z,6.07
2018-05-26T20:12:06.925Z,9.37
2018-05-26T20:14:34.454Z,7.27
2018-05-26T20:17:01.995Z,8.77
2018-05-26T20:19:29.660Z,7.77
2018-05-26T20:21:57.269Z,9.83
2018-05-26T20:24:24.790Z,8.70
2018-05-26T20:26:52.408Z,9.50
2018-05-26T20:29:19.950Z,7.10
2018-05-26T20:31:48.331Z,8.57
2018-05-26T20:34:16.246Z,7.53
2018-05-26T20:36:43.861Z,6.87
2018-05-26T20:39:11.519Z,6.70
2018-05-26T20:41:39.219Z,11.87
2018-05-26T20:44:06.844Z,10.07
2018-05-26T20:46:34.628Z,7.63
2018-05-26T20:49:02.487Z,10.50
2018-05-26T20:51:30.238Z,6.90
2018-05-26T20:53:57.899Z,7.80
2018-05-26T20:56:25.566Z,8.97
2018-05-26T20:58:53.122Z,7.90
2018-05-26T21:01:20.670Z,7.60
2018-05-26T21:03:48.454Z,8.83
2018-05-26T21:06:16.119Z,10.00
2018-05-26T21:08:43.936Z,9.63
2018-05-26T21:11:11.539Z,8.77
2018-05-26T21:13:39.309Z,8.00
2018-05-26T21:16:06.963Z,8.97
2018-05-26T21:18:35.256Z,8.70
2018-05-26T21:21:02.908Z,10.17
2018-05-26T21:23:30.562Z,14.97
2018-05-26T21:25:58.127Z,10.93
2018-05-26T21:28:25.863Z,13.47
2018-05-26T21:30:53.591Z,9.50
2018-05-26T21:33:21.488Z,10.80
2018-05-26T21:35:49.288Z,13.40
2018-05-26T21:38:16.818Z,10.40
2018-05-26T21:40:44.715Z,13.93
2018-05-26T21:43:12.265Z,11.57
2018-05-26T21:45:39.809Z,8.90
2018-05-26T21:48:07.368Z,14.80
2018-05-26T21:50:34.936Z,12.63
2018-05-26T21:53:02.515Z,8.93
2018-05-26T21:55:30.059Z,9.63
2018-05-26T21:57:57.846Z,10.57
2018-05-26T22:00:25.517Z,9.73
2018-05-26T22:02:53.285Z,10.13
2018-05-26T22:05:20.851Z,9.80
2018-05-26T22:07:48.416Z,8.77
2018-05-26T22:10:15.969Z,10.50
2018-05-26T22:12:43.509Z,10.40
2018-05-26T22:15:11.230Z,9.83
2018-05-26T22:17:38.818Z,10.70
2018-05-26T22:20:06.745Z,10.23
2018-05-26T22:22:34.361Z,10.40
2018-05-26T22:25:01.903Z,10.07
2018-05-26T22:27:29.496Z,10.40
2018-05-26T22:29:57.041Z,10.20
2018-05-26T22:32:24.604Z,11.30
2018-05-26T22:34:52.135Z,9.73
2018-05-26T22:37:19.654Z,9.77
2018-05-26T22:39:47.223Z,11.90
2018-05-26T22:42:14.740Z,9.97
2018-05-26T22:44:42.271Z,12.37
2018-05-26T22:47:09.795Z,10.80
2018-05-26T22:49:37.395Z,10.17
2018-05-26T22:52:04.952Z,12.53
2018-05-26T22:54:32.508Z,23.83
2018-05-26T22:57:00.105Z,14.70
2018-05-26T22:59:27.733Z,14.57
2018-05-26T23:01:55.425Z,10.77
2018-05-26T23:04:22.955Z,10.83
2018-05-26T23:06:50.491Z,12.20
2018-05-26T23:09:18.042Z,10.87
2018-05-26T23:11:45.561Z,9.53
2018-05-26T23:14:13.279Z,10.77
2018-05-26T23:16:40.994Z,10.50
2018-05-26T23:19:08.532Z,10.03
2018-05-26T23:21:36.080Z,10.30
2018-05-26T23:24:03.599Z,9.97
2018-05-26T23:26:31.125Z,13.13
2018-05-26T23:28:58.733Z,10.77
2018-05-26T23:31:26.256Z,10.83
2018-05-26T23:33:53.787Z,11.80
2018-05-26T23:36:21.393Z,9.80
2018-05-26T23:38:48.926Z,10.77
2018-05-26T23:41:16.563Z,9.97
2018-05-26T23:43:44.086Z,9.90
2018-05-26T23:46:11.620Z,11.60
2018-05-26T23:48:39.193Z,10.17
2018-05-26T23:51:06.937Z,13.83
2018-05-26T23:53:34.520Z,10.70
2018-05-26T23:56:02.044Z,10.20
2018-05-26T23:58:29.580Z,11.57
